This is the latest recevied weather packets stored in our database for station/object W2EH. If no packets are shown the sender has not sent any weather packets the latest 1 day(s).
| Time | Temp. | Humidity | Pressure | Rain* | Wind** | Luminosity | Snow |
|---|---|---|---|---|---|---|---|
| 1778084149 | 15.56° C | 91% | 1011.5 hPa | 0 mm | - | 55 W/m² | - |
| 1778081527 | 16.67° C | 91% | 1012.1 hPa | 0 mm | - | 11 W/m² | - |
| 1778080316 | 17.22° C | 91% | 1011.6 hPa | 0 mm | - | 15 W/m² | - |
| 1778079710 | 17.22° C | 91% | 1010.8 hPa | 0 mm | - | 35 W/m² | - |
| 1778077893 | 19.44° C | 90% | 1010.3 hPa | 0 mm | - | 11 W/m² | - |
| 1778076079 | 21.67° C | 86% | 1009.5 hPa | 0 mm | - | 28 W/m² | - |
| 1778075472 | 23.89° C | 91% | 1009.2 hPa | 0 mm | - | 21 W/m² | - |
| 1778074562 | 23.89° C | 93% | 1008.5 hPa | 0 mm | - | 59 W/m² | - |
| 1778074259 | 23.89° C | 93% | 1008.8 hPa | 0 mm | - | 38 W/m² | - |
| 1778073956 | 23.33° C | 93% | 1008.9 hPa | 0 mm | - | 38 W/m² | - |
| 1778070324 | 22.22° C | 95% | 1008.2 hPa | 0 mm | - | 18 W/m² | - |
| 1778068207 | 22.22° C | 93% | 1007.9 hPa | 0 mm | - | 2 W/m² | - |
| 1778066996 | 22.78° C | 92% | 1008 hPa | 0 mm | - | 0 W/m² | - |
| 1778064876 | 23.33° C | 92% | 1008.1 hPa | 0 mm | - | 0 W/m² | - |
| 1778063363 | 23.89° C | 90% | 1007.8 hPa | 0 mm | - | 0 W/m² | - |
| 1778062152 | 23.89° C | 90% | 1007.5 hPa | 0 mm | - | 0 W/m² | - |
| 1778061850 | 23.89° C | 90% | 1007.4 hPa | 0 mm | - | 0 W/m² | - |
| 1778061548 | 23.89° C | 90% | 1007.3 hPa | 0 mm | - | 0 W/m² | - |
| 1778060942 | 23.89° C | 91% | 1007.3 hPa | 0 mm | - | 0 W/m² | - |
| 1778060641 | 23.89° C | 91% | 1007.3 hPa | 0 mm | - | 0 W/m² | - |
| 1778060338 | 23.89° C | 91% | 1007.3 hPa | 0 mm | - | 0 W/m² | - |
| 1778059431 | 23.89° C | 91% | 1007 hPa | 0 mm | - | 0 W/m² | - |
| 1778059127 | 23.89° C | 90% | 1007.2 hPa | 0 mm | - | 0 W/m² | - |
| 1778058220 | 23.89° C | 89% | 1007 hPa | 0 mm | - | 0 W/m² | - |
| 1778057006 | 23.89° C | 88% | 1006.9 hPa | 0 mm | - | 0 W/m² | - |
* Rain latest hour (hover to see other rain measurements)
** Current wind speed in m/s (hover to see current wind gust speed)